الصفحة الرئيسية
صور السواتل توقعات الطقس لمدة 10 يوممناخالطقس البحري أعاصير برق مطارأسئلة وأجوبة الرسائل الإخبارية نبذة
طقس : أوروبا أفريقيا أمريكا الشمالية أمريكا الجنوبية آسيا أستراليا-أوقيانوسيا أخرى
لغات جهة اتصال

سكاكا, السعودية

مطار الجوف المحلي

دائرة عرض: 29-47N, خط طول: 040-06E, ارتفاع: 689 متر


METAR: OESK 011200Z 17003KT CAVOK 22/M01 Q1016 NOSIG
TAF: OESK 011030Z 0112/0218 33012KT 7000 SKC BECMG 0118/0120 VRB03KT TEMPO 0200/0206 4000 BR FEW020

زمن: 15:26 (12:26 UTC)

مراقبة الطقس الحالي

تاريخ ووقت الإصدار 26 دقيقة قبل الساعة 12:00UTC
ريح 3 عقدة من الجنوب
درجة الحرارة 22°درجة مئوية
الرطوبة 21%
ضغط 1016 hPa
الرؤية 10 كم أو أكثر
الغيوم لا تقل 1500 م ولا وجود لمزنة ركامية السحاب الأسود

تغيير وحدة

توقعات

تاريخ ووقت الإصدار 1ساعة و 56 دقيقة قبل الساعة 10:30UTC
التوقعات صالحة من01 الساعة 12 UTC إلى 02 الساعة 18 UTC
ريح 12 عقدة من الشمال/الشمال الغربي
الرؤية: 7000 متر
سماء صافية
أصبح
من 01 الساعة 18 UTC إلى 01 الساعة 20 UTC
ريح 3 عقدةمن اتجاهات متغيرة
مؤقت
من 02 الساعة 00 UTC إلى 02 الساعة 06 UTC
الرؤية: 4000 متر
غيوم قليلة على ارتفاع 2000 قدم
غشاء
المعلومات الواردة في هذا الموقع يخضع لـإخلاء مسؤولية
طقس : أوروبا أفريقيا أمريكا الشمالية أمريكا الجنوبية آسيا أستراليا-أوقيانوسيا أخرى
صور السواتل توقعات الطقس لمدة 10 يوممناخالطقس البحري أعاصير برق مطارأسئلة وأجوبة لغات جهة اتصال الرسائل الإخبارية نبذة